OIHH  Hamadan Airport

Add Bookmark

Hamadan, Iran

Status IATA
Operational HDM
Latitude Longitude
34° 52' 9" N 48° 33' 9" E
34.869202 48.552502
Local (DST + 5) UTC (GMT + 4)
Dec 22, 2014 08:27 Dec 22, 2014 04:57
Sunrise-Sunset Local UTC
Begin Civil Twilight 06:50 03:20
Sunrise 07:18 03:48
Sunset 05:10 13:40
End Civil Twilight 05:38 14:08

Current Weather

METAR Observed MVFR
OIHH 220400Z 00000KT 8000 SKC M01/M02 Q1017 Mon, Dec 22, 2014 @ 04:00 UTC
(57 Minutes ago)
Marginal Visual Flight Rules
Wind Visibility Clouds Conditions
Calm 8000 meters
  • Clear skies
  • No significant weather
Temperatures Readings Precipitation
Current Temp -1°C (30°F)
Dewpoint -2°C (28°F)
Humidity 93%
Altimeter 30.03"Hg
Sea Level Pressure 1017mb
Field Elevation 5764.44'
None Recorded

24 Hour Weather History

Loading
-

24 Hour Weather Graphs

Loading
-

CheckWX.com is intended as a tool to help pilots better visualize weather data. It is not intended as a substitute for an official weather briefing obtained from a Flight Service Station. CheckWX.com does not meet the FAA requirements for an official pre-flight weather briefing. Therefore, it's important that pilots still call and obtain an official FSS pre-flight weather briefing.